»·PEaware :: ASA1257 KPSP-KSEA

ASA1257 :: KPSP-KSEA

FLIGHT INFORMATION

Flight Status: Arrived
Operator:
Alaska Airlines
More flights by this operator :: More flights under this callsign
Pilot: Chandler S. (807)
Aircraft: BOEING 737-900
(B739)
More flights by this aircraft type
Origin: KPSP Palm Springs Intl
United States
Destination: KSEA Seattle-Tacoma Intl
United States
More flights between these airports :: More routes between these airports
Route: CATH1 PSP V386 PMD J65 EHF SHIMR LKV HAWKZ7
File this flight plan on PilotEdge
Remarks:
Altitude:
(Current/Filed)
36,000ft
Speed:
(Current/Filed)
400kts
Departed: 25-Sep-23 11:55 AM
Arrived: 25-Sep-23 02:17 PM
Distance/Time
Traveled:
858nm/2:22
Distance/Time
To Go:
Arrived

Flight Plot

Page will automatically refresh every two minutes.

Flight plan parsing failed; only flown route is shown


Map Options




Map Legend


Flown Route
Filed Route
Departure Airport
Arrival Airport
Navaid (VOR, NDB)
Fix

Horizontal Profiles

Position Reports

Time Latitude Longitude Heading Altitude Ground
Speed
25-Sep-23 11:32 33.823453 -116.505864 253 421ft 0kts
25-Sep-23 11:33 33.823453 -116.505864 253 421ft 0kts
25-Sep-23 11:34 33.823453 -116.505864 253 421ft 0kts
25-Sep-23 11:35 33.823453 -116.505864 253 421ft 0kts
25-Sep-23 11:36 33.823453 -116.505864 253 421ft 0kts
25-Sep-23 11:37 33.823453 -116.505864 253 421ft 0kts
25-Sep-23 11:38 33.823453 -116.505864 253 421ft 0kts
25-Sep-23 11:39 33.823453 -116.505864 253 421ft 0kts
25-Sep-23 11:40 33.823453 -116.505864 253 421ft 0kts
25-Sep-23 11:41 33.823453 -116.505864 253 421ft 0kts
25-Sep-23 11:42 33.823453 -116.505864 253 421ft 0kts
25-Sep-23 11:43 33.823453 -116.505864 253 421ft 0kts
25-Sep-23 11:44 33.823453 -116.505864 253 421ft 0kts
25-Sep-23 11:45 33.823453 -116.505864 253 421ft 0kts
25-Sep-23 11:46 33.823457 -116.505846 253 421ft 1kts
25-Sep-23 11:47 33.823737 -116.505303 144 411ft 1kts
25-Sep-23 11:48 33.823933 -116.505476 143 415ft 0kts
25-Sep-23 11:49 33.823933 -116.505476 143 415ft 0kts
25-Sep-23 11:50 33.823866 -116.505417 142 418ft 4kts
25-Sep-23 11:51 33.821306 -116.502214 142 415ft 16kts
25-Sep-23 11:52 33.818365 -116.498984 83 406ft 0kts
25-Sep-23 11:53 33.818794 -116.498077 8 405ft 7kts
25-Sep-23 11:55 33.837757 -116.514829 323 863ft 161kts
25-Sep-23 11:56 33.882633 -116.529183 31 2484ft 227kts
25-Sep-23 11:57 33.933647 -116.483678 92 3956ft 281kts
25-Sep-23 11:58 33.877588 -116.430422 150 7012ft 282kts
25-Sep-23 11:59 33.835149 -116.348663 117 9735ft 300kts
25-Sep-23 12:00 33.793349 -116.249983 119 10783ft 370kts
25-Sep-23 12:01 33.705016 -116.210182 203 12827ft 367kts
25-Sep-23 12:02 33.659905 -116.309291 280 14880ft 374kts
25-Sep-23 12:03 33.735530 -116.390581 342 16772ft 400kts
25-Sep-23 12:04 33.845382 -116.421827 342 18470ft 410kts
25-Sep-23 12:05 33.955334 -116.462572 338 19948ft 417kts
25-Sep-23 12:06 34.066759 -116.506598 339 21398ft 425kts
25-Sep-23 12:07 34.139101 -116.608748 290 22670ft 420kts
25-Sep-23 12:08 34.183825 -116.740819 291 23834ft 429kts
25-Sep-23 12:09 34.230172 -116.875443 291 24863ft 437kts
25-Sep-23 12:10 34.277166 -117.012263 291 25880ft 445kts
25-Sep-23 12:11 34.324859 -117.151778 291 26875ft 452kts
25-Sep-23 12:12 34.373033 -117.293337 291 27874ft 459kts
25-Sep-23 12:13 34.421876 -117.437521 291 28843ft 465kts
25-Sep-23 12:14 34.470605 -117.582032 291 30229ft 462kts
25-Sep-23 12:15 34.518837 -117.725747 291 31520ft 458kts
25-Sep-23 12:16 34.566400 -117.868138 291 32815ft 454kts
25-Sep-23 12:17 34.613406 -118.009493 292 34032ft 450kts
25-Sep-23 12:18 34.680424 -118.136005 311 34921ft 448kts
25-Sep-23 12:19 34.760977 -118.250731 310 35672ft 447kts
25-Sep-23 12:20 34.841219 -118.366951 310 36107ft 450kts
25-Sep-23 12:21 34.921239 -118.483299 310 36159ft 446kts
25-Sep-23 12:22 35.000859 -118.599418 311 36191ft 446kts
25-Sep-23 12:23 35.093572 -118.699278 321 36165ft 445kts
25-Sep-23 12:23 35.173308 -118.779340 321 36132ft 446kts
25-Sep-23 12:25 35.284757 -118.892798 321 36110ft 447kts
25-Sep-23 12:26 35.380450 -118.990563 320 36120ft 449kts
25-Sep-23 12:27 35.477447 -119.086447 329 36113ft 447kts
25-Sep-23 12:28 35.594301 -119.136716 344 36111ft 447kts
25-Sep-23 12:28 35.694205 -119.171016 343 36134ft 448kts
25-Sep-23 12:29 35.814343 -119.213283 343 36131ft 450kts
25-Sep-23 12:30 35.934804 -119.255932 343 36111ft 451kts
25-Sep-23 12:32 36.075467 -119.305882 343 36108ft 450kts
25-Sep-23 12:32 36.175648 -119.341568 343 36119ft 450kts
25-Sep-23 12:33 36.296125 -119.384610 342 36141ft 450kts
25-Sep-23 12:34 36.416727 -119.427838 342 36136ft 451kts
25-Sep-23 12:35 36.537541 -119.471281 342 36108ft 453kts
25-Sep-23 12:36 36.658851 -119.515044 342 36110ft 454kts
25-Sep-23 12:38 36.800086 -119.566176 342 36124ft 454kts
25-Sep-23 12:38 36.901342 -119.602955 342 36119ft 454kts
25-Sep-23 12:39 37.022698 -119.647173 341 36109ft 454kts
25-Sep-23 12:40 37.144076 -119.691540 341 36098ft 454kts
25-Sep-23 12:41 37.265320 -119.736010 341 36103ft 455kts
25-Sep-23 12:42 37.386713 -119.780683 341 36109ft 455kts
25-Sep-23 12:43 37.508476 -119.825652 341 36110ft 456kts
25-Sep-23 12:44 37.630588 -119.870904 341 36108ft 458kts
25-Sep-23 12:45 37.753131 -119.916463 341 36109ft 460kts
25-Sep-23 12:46 37.875750 -119.962210 340 36107ft 459kts
25-Sep-23 12:47 37.997948 -120.007968 340 36121ft 460kts
25-Sep-23 12:48 38.120867 -120.054155 340 36124ft 461kts
25-Sep-23 12:49 38.244704 -120.098326 349 36111ft 466kts
25-Sep-23 12:50 38.374256 -120.109960 353 36121ft 468kts
25-Sep-23 12:51 38.504737 -120.121133 352 36120ft 469kts
25-Sep-23 12:52 38.635313 -120.133084 352 36165ft 470kts
25-Sep-23 12:53 38.765914 -120.145085 352 36207ft 471kts
25-Sep-23 12:54 38.896585 -120.157114 352 36243ft 471kts
25-Sep-23 12:55 39.027515 -120.169215 351 36186ft 472kts
25-Sep-23 12:56 39.158348 -120.181349 351 36212ft 471kts
25-Sep-23 12:57 39.289455 -120.193561 351 36243ft 473kts
25-Sep-23 12:58 39.420688 -120.205829 351 36234ft 474kts
25-Sep-23 12:59 39.552195 -120.218166 351 36142ft 475kts
25-Sep-23 13:00 39.684470 -120.230626 350 36091ft 477kts
25-Sep-23 13:01 39.817113 -120.243165 350 36047ft 479kts
25-Sep-23 13:02 39.950525 -120.255829 350 36017ft 481kts
25-Sep-23 13:03 40.084338 -120.268574 350 35993ft 483kts
25-Sep-23 13:04 40.217804 -120.281329 350 36032ft 482kts
25-Sep-23 13:05 40.351988 -120.294226 350 36053ft 484kts
25-Sep-23 13:06 40.486339 -120.307183 349 36050ft 485kts
25-Sep-23 13:07 40.621521 -120.320271 349 36009ft 487kts
25-Sep-23 13:08 40.756465 -120.333385 349 35979ft 489kts
25-Sep-23 13:09 40.892508 -120.346663 349 35983ft 490kts
25-Sep-23 13:10 41.028810 -120.360019 349 35970ft 491kts
25-Sep-23 13:11 41.164931 -120.373404 349 35957ft 490kts
25-Sep-23 13:12 41.301032 -120.386850 349 35997ft 490kts
25-Sep-23 13:13 41.437494 -120.400400 349 36031ft 491kts
25-Sep-23 13:14 41.573545 -120.413966 349 36027ft 493kts
25-Sep-23 13:15 41.710800 -120.427716 349 35974ft 497kts
25-Sep-23 13:16 41.849170 -120.441623 349 35937ft 501kts
25-Sep-23 13:17 41.988714 -120.455708 349 36014ft 505kts
25-Sep-23 13:18 42.129606 -120.469986 349 36062ft 508kts
25-Sep-23 13:19 42.270166 -120.484294 349 36033ft 508kts
25-Sep-23 13:20 42.411097 -120.498702 349 35945ft 506kts
25-Sep-23 13:21 42.544549 -120.535699 326 35891ft 478kts
25-Sep-23 13:22 42.665332 -120.611202 326 35898ft 481kts
25-Sep-23 13:23 42.788497 -120.686358 326 35900ft 488kts
25-Sep-23 13:24 42.913105 -120.762359 326 35893ft 493kts
25-Sep-23 13:25 43.038418 -120.839169 326 35887ft 493kts
25-Sep-23 13:26 43.163447 -120.916184 325 35904ft 494kts
25-Sep-23 13:27 43.289002 -120.993888 325 35909ft 494kts
25-Sep-23 13:28 43.414039 -121.071629 324 35925ft 495kts
25-Sep-23 13:29 43.539607 -121.150055 324 35929ft 497kts
25-Sep-23 13:30 43.665651 -121.229144 324 35950ft 499kts
25-Sep-23 13:31 43.792165 -121.308883 324 35972ft 502kts
25-Sep-23 13:32 43.919493 -121.389511 324 35973ft 504kts
25-Sep-23 13:33 44.047557 -121.471006 323 35977ft 507kts
25-Sep-23 13:34 44.175864 -121.553042 323 35967ft 509kts
25-Sep-23 13:35 44.304827 -121.635878 323 35957ft 510kts
25-Sep-23 13:36 44.432672 -121.718322 323 35946ft 504kts
25-Sep-23 13:37 44.559737 -121.800819 322 35939ft 504kts
25-Sep-23 13:38 44.686990 -121.883832 323 35946ft 507kts
25-Sep-23 13:39 44.816039 -121.968376 323 35933ft 512kts
25-Sep-23 13:40 44.945379 -122.053482 323 35897ft 514kts
25-Sep-23 13:41 45.074823 -122.139129 322 35899ft 513kts
25-Sep-23 13:42 45.204684 -122.225627 322 34695ft 525kts
25-Sep-23 13:43 45.337855 -122.314562 322 31434ft 531kts
25-Sep-23 13:44 45.469531 -122.402874 324 28979ft 516kts
25-Sep-23 13:45 45.597001 -122.488974 325 26651ft 499kts
25-Sep-23 13:46 45.720951 -122.573194 325 24391ft 489kts
25-Sep-23 13:47 45.850462 -122.617877 344 23849ft 458kts
25-Sep-23 13:48 45.968103 -122.645732 341 23824ft 402kts
25-Sep-23 13:49 46.075228 -122.672799 340 23910ft 403kts
25-Sep-23 13:50 46.187789 -122.696295 344 22741ft 423kts
25-Sep-23 13:51 46.312200 -122.720568 345 19552ft 452kts
25-Sep-23 13:52 46.434903 -122.727399 353 18377ft 428kts
25-Sep-23 13:53 46.551134 -122.730436 353 17127ft 418kts
25-Sep-23 13:54 46.667049 -122.734684 354 15917ft 409kts
25-Sep-23 13:55 46.779020 -122.733626 15 14727ft 397kts
25-Sep-23 13:56 46.864091 -122.645783 40 13684ft 366kts
25-Sep-23 13:57 46.944721 -122.558286 21 12529ft 353kts
25-Sep-23 13:58 47.035949 -122.519179 15 11579ft 337kts
25-Sep-23 13:59 47.126856 -122.490515 3 10627ft 327kts
25-Sep-23 14:00 47.215386 -122.476019 3 9668ft 318kts
25-Sep-23 14:01 47.303825 -122.462736 3 8562ft 316kts
25-Sep-23 14:02 47.390067 -122.454408 356 7490ft 303kts
25-Sep-23 14:03 47.472861 -122.455341 357 6472ft 293kts
25-Sep-23 14:04 47.551252 -122.455648 1 5988ft 258kts
25-Sep-23 14:05 47.619243 -122.440124 9 4916ft 241kts
25-Sep-23 14:06 47.685328 -122.424529 9 3982ft 236kts
25-Sep-23 14:07 47.747075 -122.399991 63 3989ft 218kts
25-Sep-23 14:08 47.741571 -122.329301 156 4008ft 166kts
25-Sep-23 14:09 47.699776 -122.307454 176 3970ft 162kts
25-Sep-23 14:10 47.655002 -122.306093 180 3446ft 161kts
25-Sep-23 14:11 47.609436 -122.306456 181 3194ft 163kts
25-Sep-23 14:12 47.565732 -122.306838 180 2262ft 141kts
25-Sep-23 14:13 47.524485 -122.307216 181 1675ft 145kts
25-Sep-23 14:14 47.485967 -122.307548 180 925ft 143kts
25-Sep-23 14:15 47.449520 -122.307829 178 419ft 58kts
25-Sep-23 14:16 47.446335 -122.306230 0 422ft 9kts
25-Sep-23 14:17 47.447737 -122.304383 92 430ft 4kts
25-Sep-23 14:18 47.448049 -122.303447 39 423ft 0kts
25-Sep-23 14:19 47.448077 -122.303413 39 426ft 0kts
25-Sep-23 14:20 47.448077 -122.303413 39 426ft 0kts

Navigation Log

Ident Type
Flight plan parsing failed, navigation log unavailable